Time;durP1;ratioP1;P1;durP2;ratioP2;P2;SDS_P1;SDS_P2;PMS_P1;PMS_P2;Temp;Humidity;BMP_temperature;BMP_pressure;BME280_temperature;BME280_humidity;BME280_pressure;Samples;Min_cycle;Max_cycle;Signal;HPM_P1;HPM_P2
2023/11/23 00:00:49;;;;;;;33.25;17.88;;;;;;;6.14;100.00;102217.59;5132685;27;20444;-47
2023/11/23 00:03:17;;;;;;;33.90;19.73;;;;;;;6.16;100.00;102219.25;5132375;27;20039;-48
2023/11/23 00:05:48;;;;;;;32.28;18.80;;;;;;;6.16;100.00;102218.38;5133495;27;20112;-47
2023/11/23 00:08:17;;;;;;;32.42;19.20;;;;;;;6.17;100.00;102213.13;5135713;27;20133;-49
2023/11/23 00:10:45;;;;;;;33.15;19.23;;;;;;;6.16;100.00;102211.44;5132073;27;20434;-51
2023/11/23 00:13:13;;;;;;;36.78;18.48;;;;;;;6.21;100.00;102208.69;5132179;27;20046;-50
2023/11/23 00:15:41;;;;;;;32.70;19.58;;;;;;;6.19;100.00;102202.63;5132526;27;20043;-48
2023/11/23 00:18:09;;;;;;;35.10;20.42;;;;;;;6.22;100.00;102199.97;5134423;27;20054;-49
2023/11/23 00:20:38;;;;;;;37.92;20.80;;;;;;;6.25;100.00;102192.88;5131987;27;20047;-50
2023/11/23 00:23:06;;;;;;;39.63;20.83;;;;;;;6.22;100.00;102197.34;5132030;27;20577;-50
2023/11/23 00:25:35;;;;;;;35.05;20.40;;;;;;;6.25;100.00;102199.88;5130213;27;20047;-51
2023/11/23 00:28:04;;;;;;;36.10;20.27;;;;;;;6.29;100.00;102196.28;5132398;27;20050;-51
2023/11/23 00:30:32;;;;;;;36.92;21.58;;;;;;;6.28;100.00;102185.88;5131964;27;20051;-46
2023/11/23 00:33:00;;;;;;;40.78;22.35;;;;;;;6.29;100.00;102187.59;5131223;27;20039;-46
2023/11/23 00:35:28;;;;;;;35.13;20.63;;;;;;;6.25;100.00;102177.19;5131237;27;20047;-46
2023/11/23 00:37:58;;;;;;;37.80;20.83;;;;;;;6.28;100.00;102167.59;5131819;27;20053;-48
2023/11/23 00:40:26;;;;;;;36.92;20.17;;;;;;;6.28;100.00;102172.81;5133935;27;20049;-48
2023/11/23 00:42:56;;;;;;;37.05;21.88;;;;;;;6.29;100.00;102164.94;5134374;27;20116;-47
2023/11/23 00:45:24;;;;;;;39.38;21.02;;;;;;;6.30;100.00;102165.78;5132479;27;20080;-47
2023/11/23 00:47:53;;;;;;;38.45;20.95;;;;;;;6.32;100.00;102159.63;5131503;27;20092;-53
2023/11/23 00:50:21;;;;;;;38.10;21.73;;;;;;;6.34;100.00;102156.97;5130808;27;20125;-49
2023/11/23 00:52:49;;;;;;;37.20;22.65;;;;;;;6.36;100.00;102161.25;5131757;27;20043;-47
2023/11/23 00:55:17;;;;;;;38.38;23.00;;;;;;;6.36;100.00;102158.63;5128028;27;20046;-46
2023/11/23 00:57:45;;;;;;;37.42;21.63;;;;;;;6.36;100.00;102157.78;5131712;27;20055;-48
2023/11/23 01:00:16;;;;;;;40.40;23.13;;;;;;;6.39;100.00;102144.63;5130769;27;20051;-49
2023/11/23 01:02:46;;;;;;;35.10;22.15;;;;;;;6.39;100.00;102144.63;5129936;27;20059;-49
2023/11/23 01:05:15;;;;;;;41.22;22.58;;;;;;;6.39;100.00;102140.28;5130580;27;20066;-47
2023/11/23 01:07:43;;;;;;;36.00;22.02;;;;;;;6.42;100.00;102139.31;5134319;27;20055;-48
2023/11/23 01:10:11;;;;;;;41.70;24.00;;;;;;;6.42;100.00;102145.41;5129111;27;20047;-48
2023/11/23 01:12:39;;;;;;;38.38;24.40;;;;;;;6.47;100.00;102132.22;5131590;27;20047;-48
2023/11/23 01:15:08;;;;;;;40.33;22.65;;;;;;;6.48;100.00;102141.78;5132831;27;20043;-46
2023/11/23 01:17:38;;;;;;;38.30;22.70;;;;;;;6.48;100.00;102141.78;5131484;27;20151;-48
2023/11/23 01:20:10;;;;;;;41.95;23.65;;;;;;;6.50;100.00;102139.97;5130230;27;20134;-48
2023/11/23 01:22:38;;;;;;;35.60;21.67;;;;;;;6.50;100.00;102137.34;5134305;27;20047;-46
2023/11/23 01:25:08;;;;;;;37.83;22.02;;;;;;;6.54;100.00;102138.97;5132018;27;20058;-46
2023/11/23 01:27:39;;;;;;;45.47;23.50;;;;;;;6.55;100.00;102137.25;5131429;27;20107;-49
2023/11/23 01:30:08;;;;;;;39.55;22.75;;;;;;;6.55;100.00;102140.69;5129921;27;20043;-49
2023/11/23 01:32:38;;;;;;;38.58;23.13;;;;;;;6.55;100.00;102132.84;5128968;27;20055;-47
2023/11/23 01:35:08;;;;;;;40.83;23.55;;;;;;;6.56;100.00;102134.59;5130054;27;20761;-49
2023/11/23 01:37:36;;;;;;;40.10;23.83;;;;;;;6.58;100.00;102124.94;5132119;27;20043;-49
2023/11/23 01:40:06;;;;;;;39.05;23.58;;;;;;;6.63;100.00;102126.59;5133965;27;20071;-47
2023/11/23 01:42:34;;;;;;;39.72;23.85;;;;;;;6.65;100.00;102120.38;5134195;27;20101;-51
2023/11/23 01:45:02;;;;;;;47.13;24.00;;;;;;;6.67;100.00;102125.59;5133921;27;20441;-49
2023/11/23 01:47:31;;;;;;;40.50;23.63;;;;;;;6.73;100.00;102128.03;5129976;27;20090;-49
2023/11/23 01:50:03;;;;;;;43.35;24.33;;;;;;;6.77;100.00;102124.41;5131185;27;20125;-48
2023/11/23 01:52:31;;;;;;;39.63;24.20;;;;;;;6.74;100.00;102120.13;5132306;27;20040;-48
2023/11/23 01:55:00;;;;;;;42.70;23.50;;;;;;;6.76;100.00;102117.47;5128326;27;20478;-50
2023/11/23 01:57:32;;;;;;;39.40;23.17;;;;;;;6.77;100.00;102119.19;5129096;27;20043;-48
2023/11/23 02:00:03;;;;;;;40.40;23.95;;;;;;;6.83;100.00;102115.53;5130508;27;20566;-50
2023/11/23 02:02:31;;;;;;;39.13;23.15;;;;;;;6.86;100.00;102118.09;5130439;27;20642;-49
2023/11/23 02:05:04;;;;;;;39.90;24.05;;;;;;;6.88;100.00;102126.72;5130305;27;20054;-54
2023/11/23 02:07:33;;;;;;;39.88;23.02;;;;;;;6.91;100.00;102110.94;5130897;27;20071;-46
2023/11/23 02:10:01;;;;;;;42.10;24.50;;;;;;;6.94;100.00;102106.47;5128289;27;20049;-51
2023/11/23 02:12:30;;;;;;;40.22;22.92;;;;;;;6.96;100.00;102102.97;5131827;27;20497;-50
2023/11/23 02:15:01;;;;;;;36.30;24.10;;;;;;;6.98;100.00;102096.78;5130523;27;20043;-48
2023/11/23 02:17:31;;;;;;;37.92;23.65;;;;;;;7.01;100.00;102093.19;5110552;27;20046;-48
2023/11/23 02:20:02;;;;;;;39.38;23.00;;;;;;;7.05;100.00;102087.84;5129689;27;20131;-50
2023/11/23 02:22:30;;;;;;;39.00;23.38;;;;;;;7.05;100.00;102090.47;5129503;27;20051;-47
2023/11/23 02:25:04;;;;;;;39.58;24.10;;;;;;;7.06;100.00;102088.69;5129526;27;20375;-48
2023/11/23 02:27:32;;;;;;;44.90;25.35;;;;;;;7.10;100.00;102090.31;5133129;27;20047;-47
2023/11/23 02:30:00;;;;;;;39.60;23.30;;;;;;;7.14;100.00;102086.69;5133133;27;20058;-48
2023/11/23 02:32:28;;;;;;;38.45;23.42;;;;;;;7.17;100.00;102102.31;5132841;27;20127;-47
2023/11/23 02:34:56;;;;;;;37.15;23.27;;;;;;;7.19;100.00;102099.66;5130315;27;20043;-49
2023/11/23 02:37:27;;;;;;;42.45;24.20;;;;;;;7.25;100.00;102099.44;5129200;27;20414;-47
2023/11/23 02:39:56;;;;;;;36.28;23.20;;;;;;;7.27;100.00;102095.88;5128733;27;20039;-47
2023/11/23 02:42:25;;;;;;;37.28;22.95;;;;;;;7.30;100.00;102101.94;5128539;27;20054;-48
2023/11/23 02:44:53;;;;;;;41.00;23.15;;;;;;;7.32;100.00;102097.50;5129974;27;20470;-47
2023/11/23 02:47:21;;;;;;;42.35;23.63;;;;;;;7.31;100.00;102104.50;5129514;27;20522;-48
2023/11/23 02:49:50;;;;;;;35.80;23.48;;;;;;;7.34;100.00;102109.63;5129906;27;20051;-46
2023/11/23 02:52:18;;;;;;;37.60;23.67;;;;;;;7.34;100.00;102107.00;5129572;27;20043;-48
2023/11/23 02:54:46;;;;;;;37.17;22.67;;;;;;;7.37;100.00;102108.69;5132678;28;20058;-47
2023/11/23 02:57:14;;;;;;;38.72;23.58;;;;;;;7.43;100.00;102111.09;5130440;28;20134;-47
2023/11/23 02:59:44;;;;;;;38.10;22.58;;;;;;;7.44;100.00;102105.84;5129030;28;20058;-48
2023/11/23 03:02:12;;;;;;;38.92;22.90;;;;;;;7.42;100.00;102097.16;5129175;28;20494;-45
2023/11/23 03:04:40;;;;;;;34.25;22.23;;;;;;;7.44;100.00;102099.72;5129817;28;20108;-47
2023/11/23 03:07:08;;;;;;;36.28;21.95;;;;;;;7.47;100.00;102098.78;5131794;27;20055;-47
2023/11/23 03:09:37;;;;;;;34.88;21.65;;;;;;;7.52;100.00;102097.72;5134072;27;20248;-47
2023/11/23 03:12:05;;;;;;;35.97;21.38;;;;;;;7.51;100.00;102096.03;5131675;27;20501;-49
2023/11/23 03:14:34;;;;;;;33.40;21.55;;;;;;;7.51;100.00;102093.41;5132168;27;20540;-49
2023/11/23 03:17:04;;;;;;;32.08;21.20;;;;;;;7.53;100.00;102098.59;5136302;27;20074;-46
2023/11/23 03:19:33;;;;;;;32.35;21.00;;;;;;;7.54;100.00;102085.44;5133512;27;20049;-47
2023/11/23 03:22:01;;;;;;;29.90;20.83;;;;;;;7.55;100.00;102092.41;5133962;27;20416;-48
2023/11/23 03:24:30;;;;;;;33.40;21.23;;;;;;;7.60;100.00;102097.47;5134266;27;20039;-47
2023/11/23 03:26:59;;;;;;;32.55;20.92;;;;;;;7.63;100.00;102083.44;5132134;27;20047;-47
2023/11/23 03:29:27;;;;;;;34.50;21.75;;;;;;;7.65;100.00;102078.97;5134924;27;20043;-46
2023/11/23 03:31:55;;;;;;;30.65;20.48;;;;;;;7.71;100.00;102078.78;5133090;27;20502;-48
2023/11/23 03:34:25;;;;;;;31.02;19.20;;;;;;;7.70;100.00;102079.69;5132724;27;20393;-49
2023/11/23 03:36:55;;;;;;;33.33;19.55;;;;;;;7.74;100.00;102073.44;5134634;27;20122;-49
2023/11/23 03:39:23;;;;;;;33.28;19.73;;;;;;;7.76;100.00;102074.25;5134148;27;20066;-48
2023/11/23 03:41:54;;;;;;;31.95;21.05;;;;;;;7.75;100.00;102070.78;5131319;27;20047;-49
2023/11/23 03:44:22;;;;;;;33.80;19.67;;;;;;;7.78;100.00;102069.81;5133590;27;20071;-48
2023/11/23 03:46:52;;;;;;;32.60;20.27;;;;;;;7.82;100.00;102070.56;5136359;27;20035;-52
2023/11/23 03:49:20;;;;;;;32.72;20.35;;;;;;;7.82;100.00;102066.19;5134379;27;20051;-48
2023/11/23 03:51:53;;;;;;;33.90;19.85;;;;;;;7.83;100.00;102065.28;5132468;27;20054;-45
2023/11/23 03:54:21;;;;;;;35.72;21.00;;;;;;;7.86;100.00;102066.94;5132187;27;20039;-47
2023/11/23 03:56:49;;;;;;;33.83;19.23;;;;;;;7.89;100.00;102059.81;5131193;27;20051;-46
2023/11/23 03:59:17;;;;;;;32.88;20.63;;;;;;;7.91;100.00;102047.53;5133339;27;20547;-50
2023/11/23 04:01:45;;;;;;;33.45;20.23;;;;;;;7.91;100.00;102047.53;5134519;27;20494;-45
2023/11/23 04:04:14;;;;;;;30.75;19.10;;;;;;;7.92;100.00;102046.63;5130826;27;20435;-49
2023/11/23 04:06:43;;;;;;;29.67;19.33;;;;;;;7.95;100.00;102049.13;5132090;27;20104;-48
2023/11/23 04:09:13;;;;;;;30.70;18.58;;;;;;;7.95;100.00;102043.06;5132909;27;20456;-50
2023/11/23 04:11:44;;;;;;;33.20;19.48;;;;;;;7.97;100.00;102028.13;5135576;27;20054;-48
2023/11/23 04:14:12;;;;;;;35.30;19.90;;;;;;;8.02;100.00;102035.84;5133431;27;20047;-46
2023/11/23 04:16:40;;;;;;;33.85;19.10;;;;;;;8.04;100.00;102042.72;5132158;27;20454;-46
2023/11/23 04:19:08;;;;;;;28.13;18.20;;;;;;;8.07;100.00;102049.59;5133739;27;20047;-48
2023/11/23 04:21:36;;;;;;;31.85;20.30;;;;;;;8.07;100.00;102044.38;5132317;27;20061;-49
2023/11/23 04:24:05;;;;;;;33.58;19.63;;;;;;;8.08;100.00;102052.16;5133145;27;20054;-48
2023/11/23 04:26:34;;;;;;;30.23;17.92;;;;;;;8.10;100.00;102046.91;5133920;27;20116;-50
2023/11/23 04:29:04;;;;;;;28.42;18.58;;;;;;;8.17;100.00;102043.16;5132013;27;20167;-46
2023/11/23 04:31:32;;;;;;;30.05;18.08;;;;;;;8.14;100.00;102038.03;5132092;27;20103;-47
2023/11/23 04:34:00;;;;;;;26.65;18.83;;;;;;;8.13;100.00;102029.28;5131105;27;20043;-46
2023/11/23 04:36:29;;;;;;;29.25;18.10;;;;;;;8.15;100.00;102031.84;5131380;27;20493;-47
2023/11/23 04:38:58;;;;;;;26.17;17.17;;;;;;;8.20;100.00;102026.47;5132035;27;20047;-47
2023/11/23 04:41:27;;;;;;;30.02;17.50;;;;;;;8.20;100.00;102022.06;5129783;27;20147;-48
2023/11/23 04:43:56;;;;;;;29.88;17.25;;;;;;;8.21;100.00;102029.03;5132233;27;20047;-49
2023/11/23 04:46:24;;;;;;;29.40;17.45;;;;;;;8.21;100.00;102022.94;5130867;27;20067;-47
2023/11/23 04:48:52;;;;;;;33.42;18.05;;;;;;;8.21;100.00;102031.63;5132021;27;20047;-49
2023/11/23 04:51:21;;;;;;;27.50;15.68;;;;;;;8.24;100.00;102030.69;5131284;27;20047;-47
2023/11/23 04:53:49;;;;;;;24.67;14.95;;;;;;;8.27;100.00;102015.69;5131929;27;20047;-47
2023/11/23 04:56:18;;;;;;;25.75;16.17;;;;;;;8.26;100.00;102027.09;5132508;27;20043;-48
2023/11/23 04:58:46;;;;;;;28.80;15.30;;;;;;;8.33;100.00;102032.09;5134565;27;20051;-50
2023/11/23 05:01:16;;;;;;;22.48;14.93;;;;;;;8.29;100.00;102024.34;5133762;27;20051;-46
2023/11/23 05:03:44;;;;;;;34.53;15.93;;;;;;;8.30;100.00;102033.06;5131666;27;20062;-48
2023/11/23 05:06:12;;;;;;;26.13;15.05;;;;;;;8.32;100.00;102033.00;5132050;27;20070;-48
2023/11/23 05:08:41;;;;;;;22.23;13.80;;;;;;;8.31;100.00;102039.19;5134453;27;20077;-48
2023/11/23 05:11:09;;;;;;;25.17;16.05;;;;;;;8.38;100.00;102032.78;5134466;27;20043;-49
2023/11/23 05:13:37;;;;;;;29.30;15.05;;;;;;;8.36;100.00;102042.50;5131584;27;20071;-50
2023/11/23 05:16:06;;;;;;;29.73;15.95;;;;;;;8.36;100.00;102022.38;5131890;27;20486;-48
2023/11/23 05:18:36;;;;;;;28.30;15.70;;;;;;;8.35;100.00;102038.16;5133174;27;20129;-49
2023/11/23 05:21:04;;;;;;;26.70;14.90;;;;;;;8.37;100.00;102024.09;5130995;27;20587;-51
2023/11/23 05:23:32;;;;;;;24.60;14.82;;;;;;;8.37;100.00;102033.69;5131154;27;20506;-50
2023/11/23 05:26:01;;;;;;;24.95;14.38;;;;;;;8.39;100.00;102037.13;5130306;27;20043;-48
2023/11/23 05:28:30;;;;;;;24.65;14.00;;;;;;;8.44;100.00;102029.94;5133944;27;20051;-48
2023/11/23 05:31:00;;;;;;;26.25;13.43;;;;;;;8.42;100.00;102013.41;5133383;27;20047;-48
2023/11/23 05:33:29;;;;;;;23.80;13.90;;;;;;;8.39;100.00;102026.63;5130873;27;20450;-45
2023/11/23 05:35:58;;;;;;;23.63;13.50;;;;;;;8.41;100.00;102019.56;5130632;27;20051;-50
2023/11/23 05:38:26;;;;;;;24.50;14.75;;;;;;;8.39;100.00;102013.53;5130450;27;20983;-50
2023/11/23 05:40:55;;;;;;;22.05;13.20;;;;;;;8.41;100.00;101999.47;5133348;27;20051;-48
2023/11/23 05:43:24;;;;;;;22.50;12.50;;;;;;;8.41;100.00;102009.06;5130186;27;20053;-47
2023/11/23 05:45:52;;;;;;;24.65;12.02;;;;;;;8.46;100.00;101996.69;5129484;27;20054;-47
2023/11/23 05:48:20;;;;;;;19.42;11.85;;;;;;;8.44;100.00;102001.97;5132124;27;20047;-47
2023/11/23 05:50:48;;;;;;;20.67;12.18;;;;;;;8.46;100.00;102007.16;5133701;27;20524;-49
2023/11/23 05:53:18;;;;;;;20.48;12.10;;;;;;;8.46;100.00;102001.94;5130666;27;20154;-46
2023/11/23 05:55:46;;;;;;;21.65;12.38;;;;;;;8.45;100.00;101989.72;5128615;27;20043;-47
2023/11/23 05:58:16;;;;;;;21.48;11.73;;;;;;;8.44;100.00;102006.34;5130471;27;20048;-48
2023/11/23 06:00:45;;;;;;;22.20;12.57;;;;;;;8.42;100.00;101995.06;5131741;27;20047;-46
2023/11/23 06:03:17;;;;;;;18.92;11.88;;;;;;;8.41;100.00;101999.47;5133318;27;20486;-47
2023/11/23 06:05:49;;;;;;;21.88;11.52;;;;;;;8.42;100.00;102001.16;5129735;27;20064;-47
2023/11/23 06:08:18;;;;;;;18.17;12.20;;;;;;;8.43;100.00;102002.88;5129747;27;20058;-48
2023/11/23 06:10:47;;;;;;;24.08;13.40;;;;;;;8.50;100.00;102002.69;5128789;27;20042;-46
2023/11/23 06:13:15;;;;;;;22.98;13.15;;;;;;;8.49;100.00;101985.22;5131252;27;20067;-46
2023/11/23 06:15:44;;;;;;;25.60;13.90;;;;;;;8.50;100.00;101979.09;5133169;27;20046;-46
2023/11/23 06:18:12;;;;;;;23.30;13.23;;;;;;;8.48;100.00;101989.63;5130067;27;20047;-45
2023/11/23 06:20:41;;;;;;;25.23;14.43;;;;;;;8.48;100.00;101984.38;5128305;27;20051;-46
2023/11/23 06:23:09;;;;;;;23.98;14.35;;;;;;;8.48;100.00;101984.38;5128885;27;20108;-47
2023/11/23 06:25:39;;;;;;;24.98;14.80;;;;;;;8.49;100.00;101972.97;5127995;27;20046;-48
2023/11/23 06:28:07;;;;;;;29.73;15.55;;;;;;;8.54;100.00;101999.03;5131808;27;20054;-47
2023/11/23 06:30:44;;;;;;;28.52;17.85;;;;;;;8.52;100.00;101980.72;5129999;27;20422;-46
2023/11/23 06:33:13;;;;;;;27.98;15.88;;;;;;;8.53;100.00;101966.69;5130179;27;20043;-45
2023/11/23 06:35:44;;;;;;;29.70;16.33;;;;;;;8.54;100.00;101983.28;5132982;27;20123;-48
2023/11/23 06:38:13;;;;;;;28.33;16.05;;;;;;;8.55;100.00;101970.13;5130963;27;20367;-51
2023/11/23 06:40:43;;;;;;;27.25;16.00;;;;;;;8.59;100.00;101961.22;5127677;27;20047;-45
2023/11/23 06:43:11;;;;;;;27.45;15.93;;;;;;;8.56;100.00;101969.22;5129429;27;20074;-47
2023/11/23 06:45:40;;;;;;;27.25;16.10;;;;;;;8.59;100.00;101976.94;5129663;27;20039;-49
2023/11/23 06:48:08;;;;;;;30.98;16.25;;;;;;;8.60;100.00;101973.44;5132963;27;20043;-51
2023/11/23 06:50:39;;;;;;;31.10;16.23;;;;;;;8.66;100.00;101946.09;5132822;27;20058;-46
2023/11/23 06:53:08;;;;;;;26.48;15.77;;;;;;;8.68;100.00;101974.88;5132730;27;20043;-51
2023/11/23 06:55:36;;;;;;;23.83;14.98;;;;;;;8.66;100.00;101966.22;5132643;28;20042;-51
2023/11/23 06:58:07;;;;;;;29.58;17.48;;;;;;;8.66;100.00;101972.31;5132360;28;20051;-49
2023/11/23 07:00:38;;;;;;;28.27;16.63;;;;;;;8.67;100.00;101975.78;5129328;27;20039;-48
2023/11/23 07:03:10;;;;;;;22.42;14.73;;;;;;;8.69;100.00;101972.19;5129149;27;20039;-51
2023/11/23 07:05:38;;;;;;;23.02;15.30;;;;;;;8.67;100.00;101960.06;5129493;27;20075;-46
2023/11/23 07:08:07;;;;;;;27.30;14.80;;;;;;;8.67;100.00;101973.16;5128610;28;20043;-47
2023/11/23 07:10:36;;;;;;;25.13;14.10;;;;;;;8.70;100.00;101979.16;5127264;27;20054;-48
2023/11/23 07:13:04;;;;;;;21.42;14.50;;;;;;;8.71;100.00;101961.63;5129033;28;20049;-47
2023/11/23 07:15:33;;;;;;;22.42;13.68;;;;;;;8.70;100.00;101963.41;5128959;27;20046;-49
2023/11/23 07:18:02;;;;;;;22.13;13.75;;;;;;;8.75;100.00;101965.84;5129605;28;20463;-50
2023/11/23 07:20:30;;;;;;;24.55;14.63;;;;;;;8.77;100.00;101953.53;5129747;28;20050;-50
2023/11/23 07:22:58;;;;;;;21.52;13.48;;;;;;;8.81;100.00;101949.88;5129247;28;20134;-45
2023/11/23 07:25:27;;;;;;;23.75;13.38;;;;;;;8.78;100.00;101957.84;5129552;28;20058;-54
2023/11/23 07:27:57;;;;;;;23.52;12.52;;;;;;;8.76;100.00;101957.06;5132941;27;20106;-55
2023/11/23 07:30:25;;;;;;;22.05;13.23;;;;;;;8.77;100.00;101954.38;5132930;27;20047;-54
2023/11/23 07:32:55;;;;;;;20.95;12.02;;;;;;;8.76;100.00;101949.22;5132877;28;20059;-55
2023/11/23 07:35:24;;;;;;;19.45;12.18;;;;;;;8.78;100.00;101956.09;5132843;27;20047;-54
2023/11/23 07:37:52;;;;;;;21.10;11.05;;;;;;;8.81;100.00;101949.88;5132570;28;20478;-54
2023/11/23 07:40:20;;;;;;;18.27;10.82;;;;;;;8.83;100.00;101963.78;5129156;28;20039;-56
2023/11/23 07:42:48;;;;;;;22.77;11.45;;;;;;;8.84;100.00;101957.63;5130934;27;20494;-56
2023/11/23 07:45:17;;;;;;;22.52;12.10;;;;;;;8.80;100.00;101967.38;5130609;28;20432;-56
2023/11/23 07:47:46;;;;;;;19.73;11.50;;;;;;;8.80;100.00;101958.66;5130752;28;20062;-56
2023/11/23 07:50:16;;;;;;;20.77;12.07;;;;;;;8.83;100.00;101963.78;5130324;28;20059;-56
2023/11/23 07:52:45;;;;;;;22.65;11.48;;;;;;;8.82;100.00;101975.22;5131770;27;20047;-55
2023/11/23 07:55:15;;;;;;;17.67;11.30;;;;;;;8.82;100.00;101963.84;5135301;27;20378;-54
2023/11/23 07:57:43;;;;;;;21.95;11.77;;;;;;;8.86;100.00;101981.16;5133791;27;20051;-57
2023/11/23 08:00:13;;;;;;;23.63;12.88;;;;;;;8.88;100.00;101974.94;5134629;27;20129;-56
2023/11/23 08:02:41;;;;;;;23.75;12.68;;;;;;;8.90;100.00;101969.63;5136235;27;20585;-55
2023/11/23 08:05:10;;;;;;;20.85;11.43;;;;;;;8.92;100.00;101968.66;5135855;27;20107;-51
2023/11/23 08:07:39;;;;;;;17.67;11.90;;;;;;;8.93;100.00;101964.25;5136076;27;20860;-54
2023/11/23 08:10:15;;;;;;;22.00;11.43;;;;;;;8.91;100.00;101956.44;5133891;27;20051;-55
2023/11/23 08:12:44;;;;;;;20.48;12.30;;;;;;;8.92;100.00;101955.53;5134362;27;20104;-55
2023/11/23 08:15:12;;;;;;;20.88;11.15;;;;;;;8.93;100.00;101949.38;5134025;27;20122;-55
2023/11/23 08:17:41;;;;;;;17.90;11.18;;;;;;;8.94;100.00;101955.47;5133982;27;20039;-56
2023/11/23 08:20:26;;;;;;;21.75;11.85;;;;;;;8.95;100.00;101957.19;5133773;27;20459;-55
2023/11/23 08:22:57;;;;;;;20.63;12.25;;;;;;;9.01;100.00;101951.69;5135279;27;20055;-54
2023/11/23 08:25:25;;;;;;;19.38;11.70;;;;;;;9.03;100.00;101951.63;5135773;27;20146;-55
2023/11/23 08:27:57;;;;;;;19.30;11.38;;;;;;;9.02;100.00;101968.28;5134129;27;20044;-55
2023/11/23 08:30:25;;;;;;;21.50;11.73;;;;;;;9.08;100.00;101962.78;5133839;27;20062;-54
2023/11/23 08:32:55;;;;;;;18.65;11.20;;;;;;;9.10;100.00;101968.84;5133924;27;20050;-55
2023/11/23 08:35:24;;;;;;;21.55;12.35;;;;;;;9.07;100.00;101961.94;5133538;27;20107;-56
2023/11/23 08:37:52;;;;;;;20.13;11.57;;;;;;;9.09;100.00;101943.50;5133823;27;20555;-55
2023/11/23 08:40:21;;;;;;;22.10;12.43;;;;;;;9.10;100.00;101948.69;5133217;27;20496;-55
2023/11/23 08:42:52;;;;;;;20.50;11.50;;;;;;;9.16;100.00;101937.06;5134901;27;20042;-53
2023/11/23 08:45:20;;;;;;;18.60;11.02;;;;;;;9.16;100.00;101947.56;5132866;27;20554;-55
2023/11/23 08:47:48;;;;;;;19.90;12.23;;;;;;;9.18;100.00;101948.38;5133513;27;20075;-56
2023/11/23 08:50:17;;;;;;;22.05;12.30;;;;;;;9.21;100.00;101937.72;5132916;27;20039;-55
2023/11/23 08:52:45;;;;;;;18.52;12.38;;;;;;;9.20;100.00;101932.56;5132828;27;20438;-56
2023/11/23 08:55:13;;;;;;;20.33;12.15;;;;;;;9.23;100.00;101922.78;5131875;27;20497;-55
2023/11/23 08:57:43;;;;;;;17.27;11.48;;;;;;;9.23;100.00;101933.28;5133509;27;20562;-54
2023/11/23 09:00:13;;;;;;;18.63;11.32;;;;;;;9.23;100.00;101937.66;5134386;27;20406;-55
2023/11/23 09:02:43;;;;;;;21.35;11.30;;;;;;;9.27;100.00;101934.00;5135298;27;20043;-55
2023/11/23 09:05:11;;;;;;;16.98;10.85;;;;;;;9.29;100.00;101937.44;5132557;27;20419;-55
2023/11/23 09:07:42;;;;;;;19.75;11.50;;;;;;;9.32;100.00;101933.81;5133228;27;20078;-55
2023/11/23 09:10:12;;;;;;;19.33;11.73;;;;;;;9.30;100.00;101924.22;5132029;27;20051;-55
2023/11/23 09:12:40;;;;;;;18.35;12.93;;;;;;;9.32;100.00;101928.56;5133151;27;20043;-54
2023/11/23 09:15:13;;;;;;;19.80;12.05;;;;;;;9.39;100.00;101898.50;5134199;27;20043;-55
2023/11/23 09:17:41;;;;;;;23.05;11.90;;;;;;;9.42;100.00;101900.97;5133291;27;20532;-56
2023/11/23 09:20:11;;;;;;;22.98;12.07;;;;;;;9.43;100.00;101928.94;5132799;27;20050;-55
2023/11/23 09:22:41;;;;;;;20.80;11.43;;;;;;;9.46;100.00;101921.81;5134005;27;20455;-56
2023/11/23 09:25:09;;;;;;;19.40;10.93;;;;;;;9.53;100.00;101919.78;5134596;27;20059;-56
2023/11/23 09:27:39;;;;;;;17.23;10.70;;;;;;;9.52;100.00;101923.31;5133327;27;20039;-56
2023/11/23 09:30:08;;;;;;;22.00;11.18;;;;;;;9.54;100.00;101913.56;5132556;27;20043;-55
2023/11/23 09:32:38;;;;;;;18.08;10.82;;;;;;;9.60;100.00;101901.97;5133068;27;20043;-54
2023/11/23 09:35:08;;;;;;;19.67;11.23;;;;;;;9.62;100.00;101911.47;5134465;27;20472;-55
2023/11/23 09:37:36;;;;;;;18.50;11.07;;;;;;;9.68;100.00;101901.63;5133460;27;20536;-56
2023/11/23 09:40:07;;;;;;;18.63;11.57;;;;;;;9.68;100.00;101891.97;5132163;27;20047;-55
2023/11/23 09:42:38;;;;;;;16.10;10.75;;;;;;;9.72;100.00;101882.16;5133948;27;20104;-54
2023/11/23 09:45:10;;;;;;;17.55;11.23;;;;;;;9.74;100.00;101872.47;5132560;27;20107;-56
2023/11/23 09:47:41;;;;;;;20.60;10.32;;;;;;;9.82;100.00;101870.34;5133085;27;20069;-57
2023/11/23 09:50:10;;;;;;;20.45;9.93;;;;;;;9.87;100.00;101873.59;5132936;27;20117;-55
2023/11/23 09:52:42;;;;;;;16.27;10.10;;;;;;;9.91;100.00;101869.91;5132060;27;20050;-55
2023/11/23 09:55:11;;;;;;;17.48;10.55;;;;;;;9.92;100.00;101874.22;5131459;27;20051;-56
2023/11/23 09:57:39;;;;;;;18.60;10.20;;;;;;;9.96;100.00;101873.16;5131864;27;20134;-56
2023/11/23 10:00:13;;;;;;;16.80;9.82;;;;;;;9.94;100.00;101854.00;5131589;27;20042;-56
2023/11/23 10:02:45;;;;;;;18.48;9.85;;;;;;;10.02;100.00;101876.44;5131840;27;20053;-56
2023/11/23 10:05:15;;;;;;;17.48;10.27;;;;;;;10.03;100.00;101863.22;5131817;27;20122;-56
2023/11/23 10:07:43;;;;;;;17.92;10.20;;;;;;;10.02;100.00;101866.78;5130451;27;20082;-56
2023/11/23 10:10:12;;;;;;;17.35;9.63;;;;;;;10.05;100.00;101857.88;5130560;27;20047;-55
2023/11/23 10:12:41;;;;;;;17.40;9.60;;;;;;;10.06;100.00;101847.31;5130913;27;20081;-50
2023/11/23 10:15:11;;;;;;;14.77;9.13;;;;;;;10.01;100.00;101851.94;5128938;27;20413;-48
2023/11/23 10:17:40;;;;;;;14.02;8.40;;;;;;;10.04;100.00;101837.81;5132766;27;20092;-49
2023/11/23 10:20:12;;;;;;;13.95;8.63;;;;;;;10.12;100.00;101835.66;5129640;27;20086;-51
2023/11/23 10:22:43;;;;;;;16.00;9.30;;;;;;;10.13;100.00;101848.72;5129844;27;20039;-49
2023/11/23 10:25:23;;;;;;;15.85;8.82;;;;;;;10.15;100.00;101841.63;5128587;27;20149;-49
2023/11/23 10:27:52;;;;;;;12.98;8.15;;;;;;;10.18;100.00;101845.88;5130375;27;20126;-50
2023/11/23 10:30:20;;;;;;;13.95;8.88;;;;;;;10.25;100.00;101852.56;5129357;27;20111;-50
2023/11/23 10:32:49;;;;;;;15.15;8.68;;;;;;;10.31;100.00;101854.03;5130081;27;20043;-46
2023/11/23 10:35:20;;;;;;;17.63;9.32;;;;;;;10.32;100.00;101845.22;5129490;27;20698;-45
2023/11/23 10:37:54;;;;;;;20.50;7.88;;;;;;;10.34;100.00;101838.13;5129091;27;20045;-45
2023/11/23 10:40:24;;;;;;;15.68;8.00;;;;;;;10.37;100.00;101821.38;5127585;27;20050;-46
2023/11/23 10:42:53;;;;;;;16.58;7.97;;;;;;;10.39;100.00;101822.13;5130001;27;20043;-47
2023/11/23 10:45:22;;;;;;;16.17;7.60;;;;;;;10.38;100.00;101828.34;5129192;27;20047;-49
2023/11/23 10:47:58;;;;;;;12.50;6.97;;;;;;;10.41;100.00;101822.94;5129752;27;20092;-46
2023/11/23 10:50:28;;;;;;;13.75;7.38;;;;;;;10.42;100.00;101809.69;5131016;27;20078;-46
2023/11/23 10:52:58;;;;;;;13.52;8.05;;;;;;;10.47;100.00;101789.28;5130139;27;20043;-46
2023/11/23 10:55:26;;;;;;;12.32;7.18;;;;;;;10.47;100.00;101797.19;5127771;27;20043;-46
2023/11/23 10:57:58;;;;;;;12.65;7.03;;;;;;;10.48;100.00;101780.47;5129302;27;20047;-46
2023/11/23 11:00:28;;;;;;;13.27;6.90;;;;;;;10.54;100.00;101776.69;5129059;27;20054;-46
2023/11/23 11:03:00;;;;;;;15.73;6.30;;;;;;;10.58;100.00;101765.09;5129390;28;20050;-46
2023/11/23 11:05:32;;;;;;;12.70;6.25;;;;;;;10.58;100.00;101765.09;5130217;28;20086;-48
2023/11/23 11:08:04;;;;;;;10.70;5.60;;;;;;;10.60;100.00;101752.69;5128258;28;20046;-47
2023/11/23 11:10:45;;;;;;;14.90;5.95;;;;;;;10.63;100.00;101752.56;5127897;27;20071;-48
2023/11/23 11:13:17;;;;;;;13.60;5.80;;;;;;;10.67;100.00;101752.38;5128829;28;20127;-46
2023/11/23 11:15:50;;;;;;;13.02;5.95;;;;;;;10.74;100.00;101751.13;5129352;27;20047;-45
2023/11/23 11:18:21;;;;;;;15.55;5.80;;;;;;;10.71;100.00;101743.41;5128738;27;20078;-48